Time;durP1;ratioP1;P1;durP2;ratioP2;P2;SDS_P1;SDS_P2;PMS_P1;PMS_P2;Temp;Humidity;BMP_temperature;BMP_pressure;BME280_temperature;BME280_humidity;BME280_pressure;Samples;Min_cycle;Max_cycle;Signal;HPM_P1;HPM_P2
2021/12/26 00:01:17;;;;;;;22.13;11.52;;;;;;;3.87;74.63;99115.09;5035744;28;20052;-82
2021/12/26 00:03:44;;;;;;;22.33;11.15;;;;;;;3.81;74.98;99104.19;5047711;28;20110;-82
2021/12/26 00:06:15;;;;;;;21.52;11.15;;;;;;;3.80;75.07;99118.28;5061130;28;20041;-82
2021/12/26 00:08:43;;;;;;;21.48;11.00;;;;;;;3.78;74.95;99112.28;5033790;28;20045;-82
2021/12/26 00:11:10;;;;;;;18.20;10.25;;;;;;;3.76;75.34;99109.75;5045705;28;20459;-82
2021/12/26 00:13:37;;;;;;;22.80;11.27;;;;;;;3.79;75.31;99104.31;5037137;28;20048;-81
2021/12/26 00:16:05;;;;;;;21.23;11.00;;;;;;;3.81;75.53;99110.25;5055856;28;20045;-82
2021/12/26 00:18:32;;;;;;;22.95;10.75;;;;;;;3.78;75.54;99102.63;5043270;28;20448;-82
2021/12/26 00:21:00;;;;;;;20.25;10.90;;;;;;;3.81;75.52;99101.56;5051053;28;20423;-82
2021/12/26 00:23:26;;;;;;;21.98;11.85;;;;;;;3.82;75.00;99101.47;5059821;28;20090;-82
2021/12/26 00:25:54;;;;;;;25.48;11.45;;;;;;;3.68;75.33;99102.44;5057431;28;20687;-82
2021/12/26 00:28:21;;;;;;;22.02;10.52;;;;;;;3.80;74.52;99105.13;5055017;28;20048;-82
2021/12/26 00:30:48;;;;;;;22.20;11.25;;;;;;;3.73;74.81;99102.09;5045802;28;20044;-82
2021/12/26 00:33:15;;;;;;;20.73;10.65;;;;;;;3.70;74.96;99112.84;5026411;28;20055;-82
2021/12/26 00:35:42;;;;;;;21.55;10.93;;;;;;;3.65;74.96;99110.53;5061175;28;20053;-82
2021/12/26 00:38:09;;;;;;;19.15;10.07;;;;;;;3.65;75.37;99112.31;5054064;28;20502;-82
2021/12/26 00:40:39;;;;;;;25.30;11.63;;;;;;;3.63;75.21;99109.81;5032402;28;20044;-82
2021/12/26 00:43:06;;;;;;;25.20;11.35;;;;;;;3.68;75.24;99110.31;5075342;28;20045;-82
2021/12/26 00:45:33;;;;;;;22.27;11.05;;;;;;;3.66;74.84;99112.22;5061327;28;20048;-82
2021/12/26 00:48:01;;;;;;;19.77;11.02;;;;;;;3.67;75.02;99107.81;5044230;28;20688;-82
2021/12/26 00:50:30;;;;;;;26.23;11.77;;;;;;;3.68;74.70;99104.22;5041884;28;20045;-82
2021/12/26 00:52:58;;;;;;;22.75;10.77;;;;;;;3.55;75.16;99109.50;5043111;28;20037;-81
2021/12/26 00:55:27;;;;;;;23.58;10.93;;;;;;;3.59;74.92;99103.09;5047399;28;20059;-82
2021/12/26 00:57:54;;;;;;;21.55;10.90;;;;;;;3.55;75.56;99108.69;5061922;28;20064;-81
2021/12/26 01:00:24;;;;;;;22.92;11.13;;;;;;;3.62;75.45;99105.50;5044997;28;20125;-81
2021/12/26 01:02:52;;;;;;;20.75;10.13;;;;;;;3.61;75.23;99100.34;5068685;28;20041;-81
2021/12/26 01:05:22;;;;;;;21.27;11.18;;;;;;;3.66;75.17;99106.13;5047357;28;20087;-82
2021/12/26 01:08:25;;;;;;;26.38;11.75;;;;;;;3.57;74.88;99098.91;5060682;28;20044;-81
2021/12/26 01:10:55;;;;;;;22.85;10.82;;;;;;;3.59;74.71;99095.22;5015182;28;20044;-82
2021/12/26 01:13:33;;;;;;;23.02;10.65;;;;;;;3.57;74.76;99094.50;5040306;28;20388;-82
2021/12/26 01:16:12;;;;;;;19.77;10.80;;;;;;;3.50;75.41;99090.63;5030923;28;20522;-82
2021/12/26 01:18:43;;;;;;;25.08;13.00;;;;;;;3.40;75.17;99095.69;5063458;28;20050;-82
2021/12/26 01:21:17;;;;;;;24.92;10.75;;;;;;;3.50;75.16;99100.28;5064648;28;20136;-82
2021/12/26 01:23:52;;;;;;;20.83;10.40;;;;;;;3.57;75.10;99093.66;5030939;28;20958;-82
2021/12/26 01:26:19;;;;;;;22.23;11.88;;;;;;;3.60;74.83;99091.66;5064702;28;20044;-81
2021/12/26 01:28:47;;;;;;;21.23;10.32;;;;;;;3.70;74.67;99091.84;5052639;28;20067;-82
2021/12/26 01:31:18;;;;;;;23.05;11.15;;;;;;;3.60;74.88;99088.19;5067289;28;20059;-82
2021/12/26 01:33:54;;;;;;;24.10;10.85;;;;;;;3.66;74.61;99088.59;5053479;28;20063;-81
2021/12/26 01:36:53;;;;;;;23.48;11.27;;;;;;;3.44;75.02;99091.91;5010719;28;20040;-82
2021/12/26 01:39:38;;;;;;;22.55;11.65;;;;;;;3.60;74.93;99085.56;5059573;28;20041;-82
2021/12/26 01:42:14;;;;;;;26.33;11.65;;;;;;;3.48;74.75;99092.53;5049863;28;20056;-81
2021/12/26 01:44:56;;;;;;;20.52;10.00;;;;;;;3.48;75.26;99082.84;5072475;28;20048;-82
2021/12/26 01:47:26;;;;;;;20.98;11.40;;;;;;;3.51;74.97;99088.84;5075642;28;20136;-81
2021/12/26 01:49:53;;;;;;;18.25;10.18;;;;;;;3.48;75.02;99087.28;5047369;28;20482;-82
2021/12/26 01:52:20;;;;;;;21.33;11.23;;;;;;;3.48;75.56;99098.59;5056435;28;20055;-81
2021/12/26 01:54:59;;;;;;;23.42;11.52;;;;;;;3.44;75.47;99091.06;5070338;28;20040;-82
2021/12/26 01:57:26;;;;;;;22.20;10.48;;;;;;;3.56;75.10;99092.84;5026912;28;20123;-82
2021/12/26 01:59:53;;;;;;;20.70;11.13;;;;;;;3.44;75.40;99097.16;5057822;28;20052;-82
2021/12/26 02:02:22;;;;;;;17.63;9.95;;;;;;;3.51;75.15;99089.69;5081780;28;20134;-81
2021/12/26 02:04:50;;;;;;;20.35;11.40;;;;;;;3.54;75.31;99091.28;5013548;28;20067;-82
2021/12/26 02:07:20;;;;;;;20.30;10.50;;;;;;;3.57;74.72;99094.50;5026378;28;20148;-82
2021/12/26 02:09:49;;;;;;;22.00;10.52;;;;;;;3.54;74.82;99102.59;5064220;28;20123;-82
2021/12/26 02:12:20;;;;;;;22.23;11.32;;;;;;;3.40;74.97;99100.94;5054384;28;20048;-81
2021/12/26 02:14:47;;;;;;;26.08;11.10;;;;;;;3.44;75.15;99091.91;5031749;28;20048;-82
2021/12/26 02:17:16;;;;;;;19.70;9.95;;;;;;;3.40;74.82;99093.06;5055532;28;20100;-81
2021/12/26 02:19:43;;;;;;;19.63;10.70;;;;;;;3.45;75.17;99092.75;5048533;28;20056;-82
2021/12/26 02:22:23;;;;;;;18.67;10.52;;;;;;;3.43;75.12;99097.25;5022220;28;20408;-81
2021/12/26 02:27:32;;;;;;;19.23;10.18;;;;;;;3.40;75.19;99092.22;5038276;28;20063;-82
2021/12/26 02:30:13;;;;;;;21.45;10.93;;;;;;;3.30;75.18;99102.53;5020991;28;20405;-82
2021/12/26 02:32:47;;;;;;;22.40;10.73;;;;;;;3.44;74.66;99093.69;4995693;28;20120;-82
2021/12/26 02:35:14;;;;;;;21.83;9.82;;;;;;;3.40;74.67;99087.81;5046834;28;20130;-82
2021/12/26 02:37:41;;;;;;;24.00;11.52;;;;;;;3.32;75.19;99098.03;5046396;28;20048;-82
2021/12/26 02:40:10;;;;;;;22.90;11.05;;;;;;;3.42;74.80;99092.97;5041425;28;20059;-82
2021/12/26 02:42:37;;;;;;;24.65;10.75;;;;;;;3.33;75.06;99093.59;5056861;28;20139;-81
2021/12/26 02:45:05;;;;;;;22.38;10.82;;;;;;;3.35;75.07;99096.97;5046604;28;20511;-82
2021/12/26 02:47:42;;;;;;;23.23;11.32;;;;;;;3.33;74.94;99098.84;5026882;28;20045;-82
2021/12/26 02:50:17;;;;;;;33.45;12.32;;;;;;;3.30;74.64;99099.06;5059447;28;20388;-82
2021/12/26 02:52:45;;;;;;;23.00;10.90;;;;;;;3.33;74.93;99101.47;5038565;28;20044;-81
2021/12/26 02:55:14;;;;;;;24.08;11.32;;;;;;;3.33;74.90;99094.44;5041036;28;20044;-81
2021/12/26 02:57:43;;;;;;;28.60;12.52;;;;;;;3.37;75.00;99097.69;5059203;28;20055;-82
2021/12/26 03:00:14;;;;;;;29.35;12.73;;;;;;;3.44;74.69;99109.44;5050794;28;20052;-82
2021/12/26 03:02:41;;;;;;;30.27;12.07;;;;;;;3.40;74.28;99108.81;5036644;28;20144;-82
2021/12/26 03:05:09;;;;;;;27.35;11.95;;;;;;;3.34;74.41;99103.16;5049197;28;20487;-81
2021/12/26 03:07:35;;;;;;;28.90;13.10;;;;;;;3.31;74.47;99103.38;5046682;28;20036;-82
2021/12/26 03:10:04;;;;;;;25.85;10.98;;;;;;;3.22;74.69;99097.00;5036251;28;20052;-82
2021/12/26 03:12:33;;;;;;;28.55;12.70;;;;;;;3.20;74.86;99094.47;5055033;28;20044;-82
2021/12/26 03:15:01;;;;;;;33.17;13.50;;;;;;;3.09;75.36;99099.63;5075583;28;20135;-82
2021/12/26 03:17:28;;;;;;;27.95;13.25;;;;;;;3.20;75.05;99091.00;5047199;28;20055;-82
2021/12/26 03:19:55;;;;;;;29.60;12.60;;;;;;;3.24;75.04;99093.31;5048649;28;20486;-82
2021/12/26 03:22:24;;;;;;;25.92;13.45;;;;;;;3.32;74.95;99102.44;5031425;28;20447;-82
2021/12/26 03:24:51;;;;;;;24.75;11.95;;;;;;;3.22;74.86;99097.81;5053987;28;20040;-82
2021/12/26 03:27:18;;;;;;;29.58;12.73;;;;;;;3.13;75.03;99097.63;5063599;28;20036;-81
2021/12/26 03:29:45;;;;;;;29.05;13.13;;;;;;;3.18;75.37;99092.88;5050551;28;20058;-81
2021/12/26 03:32:16;;;;;;;28.60;12.75;;;;;;;3.17;75.43;99089.44;5064826;28;20040;-82
2021/12/26 03:34:50;;;;;;;29.55;13.55;;;;;;;3.18;75.44;99090.25;5064899;28;20040;-81
2021/12/26 03:37:17;;;;;;;32.88;14.50;;;;;;;3.22;75.50;99091.75;5029321;28;20044;-81
2021/12/26 03:39:44;;;;;;;30.00;13.25;;;;;;;3.28;74.71;99091.28;5037564;28;20093;-81
2021/12/26 03:42:11;;;;;;;34.80;12.98;;;;;;;3.24;74.59;99090.69;5048331;28;20071;-81
2021/12/26 03:44:41;;;;;;;28.85;13.38;;;;;;;3.26;75.04;99095.84;5048428;28;20044;-81
2021/12/26 03:47:08;;;;;;;30.48;13.73;;;;;;;3.27;74.92;99094.88;5041943;28;20049;-81
2021/12/26 03:49:36;;;;;;;32.67;14.13;;;;;;;3.34;74.73;99095.31;5082902;28;20047;-81
2021/12/26 03:52:03;;;;;;;28.88;13.20;;;;;;;3.26;74.95;99096.66;5037090;28;20064;-82
2021/12/26 03:54:30;;;;;;;29.05;13.05;;;;;;;3.15;75.00;99093.94;5041330;28;20119;-81
2021/12/26 03:56:57;;;;;;;27.55;13.00;;;;;;;3.17;74.92;99102.56;5073676;28;20967;-81
2021/12/26 03:59:27;;;;;;;27.48;12.73;;;;;;;3.20;75.31;99098.88;5033292;28;20041;-81
2021/12/26 04:01:55;;;;;;;28.67;13.18;;;;;;;3.17;75.54;99106.97;5060796;28;20040;-81
2021/12/26 04:04:24;;;;;;;28.70;13.48;;;;;;;3.15;75.62;99107.06;5054205;28;20499;-81
2021/12/26 04:06:51;;;;;;;27.13;12.75;;;;;;;3.20;75.31;99096.25;5060275;28;20049;-81
2021/12/26 04:09:18;;;;;;;29.05;13.45;;;;;;;3.17;75.65;99097.31;5020456;28;20052;-81
2021/12/26 04:11:46;;;;;;;27.95;12.77;;;;;;;3.12;75.80;99096.78;5047072;28;20452;-82
2021/12/26 04:14:13;;;;;;;30.85;13.77;;;;;;;3.13;75.90;99095.84;5059106;28;20082;-82
2021/12/26 04:16:41;;;;;;;34.28;14.15;;;;;;;3.24;75.53;99095.09;5042657;28;20055;-81
2021/12/26 04:19:08;;;;;;;30.38;13.63;;;;;;;3.19;75.71;99100.66;5043475;28;20044;-82
2021/12/26 04:21:36;;;;;;;31.67;14.15;;;;;;;3.17;75.93;99097.31;5079002;28;20075;-81
2021/12/26 04:24:03;;;;;;;30.70;13.52;;;;;;;3.20;75.75;99094.47;5049769;28;20051;-82
2021/12/26 04:26:30;;;;;;;29.85;12.75;;;;;;;3.27;75.70;99087.00;5032187;28;20055;-81
2021/12/26 04:28:59;;;;;;;30.15;12.45;;;;;;;3.14;76.05;99083.56;5063181;28;20495;-82
2021/12/26 04:31:26;;;;;;;28.80;12.18;;;;;;;3.26;75.47;99093.22;5033718;28;20044;-81
2021/12/26 04:33:53;;;;;;;35.83;13.95;;;;;;;3.22;75.56;99089.94;5033956;28;20078;-82
2021/12/26 04:36:21;;;;;;;29.02;13.43;;;;;;;3.26;75.34;99086.19;5083685;28;20507;-81
2021/12/26 04:38:48;;;;;;;32.10;14.75;;;;;;;3.32;75.15;99090.16;5061488;28;20143;-81
2021/12/26 04:41:15;;;;;;;37.58;14.55;;;;;;;3.24;75.69;99081.97;5064202;28;20047;-82
2021/12/26 04:43:44;;;;;;;28.98;12.48;;;;;;;3.22;75.35;99087.31;5085301;28;20055;-82
2021/12/26 04:46:25;;;;;;;30.77;13.20;;;;;;;3.23;75.53;99083.78;5056088;28;20051;-81
2021/12/26 04:48:59;;;;;;;29.90;13.23;;;;;;;3.18;75.55;99085.03;5032593;28;20048;-81
2021/12/26 04:51:26;;;;;;;31.77;13.98;;;;;;;3.20;75.58;99083.97;5062638;28;20119;-81
2021/12/26 04:53:57;;;;;;;30.55;13.38;;;;;;;3.21;75.34;99085.66;5054811;28;20047;-81
2021/12/26 04:56:23;;;;;;;32.35;13.50;;;;;;;3.22;75.32;99087.31;5051375;28;20410;-81
2021/12/26 04:58:51;;;;;;;31.80;13.73;;;;;;;3.33;74.95;99088.34;5033594;28;20048;-81
2021/12/26 05:01:17;;;;;;;28.70;12.93;;;;;;;3.29;75.07;99081.66;5065659;28;20665;-81
2021/12/26 05:03:44;;;;;;;30.65;12.82;;;;;;;3.17;75.68;99083.34;5060772;28;20055;-81
2021/12/26 05:06:11;;;;;;;35.00;13.77;;;;;;;3.19;75.52;99087.53;5049114;28;20071;-81
2021/12/26 05:08:38;;;;;;;31.23;13.00;;;;;;;3.19;75.60;99084.91;5040872;28;20056;-81
2021/12/26 05:11:04;;;;;;;29.15;12.90;;;;;;;3.22;75.77;99082.06;5040611;28;20043;-81
2021/12/26 05:13:31;;;;;;;34.92;14.23;;;;;;;3.36;74.76;99080.25;5054776;28;20052;-81
2021/12/26 05:15:58;;;;;;;30.27;12.57;;;;;;;3.21;75.21;99088.28;5032874;28;20714;-82
2021/12/26 05:18:25;;;;;;;32.00;13.35;;;;;;;3.25;75.07;99091.53;5043028;28;20495;-81
2021/12/26 05:20:57;;;;;;;33.85;13.82;;;;;;;3.20;75.20;99091.00;5048589;28;20053;-81
2021/12/26 05:23:24;;;;;;;28.83;12.25;;;;;;;3.19;75.32;99090.16;5067185;28;20534;-81
2021/12/26 05:25:53;;;;;;;32.17;14.20;;;;;;;3.16;75.87;99086.94;5031542;28;20052;-81
2021/12/26 05:28:20;;;;;;;31.52;12.68;;;;;;;3.20;76.10;99083.13;5063195;28;20060;-81
2021/12/26 05:30:48;;;;;;;27.98;11.95;;;;;;;3.10;75.78;99093.44;5061553;28;20044;-81
2021/12/26 05:33:24;;;;;;;28.40;12.90;;;;;;;3.06;75.81;99091.97;5071306;28;20099;-81
2021/12/26 05:35:54;;;;;;;30.95;12.82;;;;;;;3.13;76.11;99092.38;5041246;28;20071;-81
2021/12/26 05:38:23;;;;;;;31.30;12.18;;;;;;;3.17;75.94;99089.44;5050186;28;20059;-81
2021/12/26 05:40:50;;;;;;;33.30;13.57;;;;;;;3.23;75.71;99082.91;5030541;28;20051;-81
2021/12/26 05:43:17;;;;;;;28.20;11.73;;;;;;;3.18;75.99;99083.25;5035047;28;20041;-81
2021/12/26 05:45:44;;;;;;;32.55;12.63;;;;;;;3.19;75.99;99078.84;5057503;28;20522;-81
2021/12/26 05:48:18;;;;;;;34.33;13.45;;;;;;;3.17;75.65;99078.94;5031323;28;20048;-82
2021/12/26 05:50:46;;;;;;;28.80;13.48;;;;;;;3.20;75.76;99080.50;5049348;28;20046;-81
2021/12/26 05:53:42;;;;;;;27.70;12.63;;;;;;;3.18;75.83;99075.38;5001590;28;20063;-82
2021/12/26 05:56:09;;;;;;;32.92;11.77;;;;;;;3.18;75.83;99071.91;5027142;28;20147;-81
2021/12/26 05:58:37;;;;;;;31.92;12.93;;;;;;;3.20;75.98;99083.13;5058071;28;20575;-81
2021/12/26 06:01:04;;;;;;;26.33;12.15;;;;;;;3.25;75.66;99076.59;5055548;28;20058;-81
2021/12/26 06:03:33;;;;;;;31.40;13.07;;;;;;;3.28;75.09;99078.19;5041910;28;20056;-81
2021/12/26 06:06:00;;;;;;;30.33;12.65;;;;;;;3.22;75.09;99083.88;5051637;28;20048;-81
2021/12/26 06:08:35;;;;;;;29.30;12.48;;;;;;;3.21;75.04;99079.59;5060681;28;20053;-81
2021/12/26 06:11:04;;;;;;;27.67;12.88;;;;;;;3.17;75.50;99075.47;5062032;28;20045;-81
2021/12/26 06:13:32;;;;;;;30.90;13.60;;;;;;;3.18;75.54;99078.00;5058248;28;20504;-81
2021/12/26 06:15:59;;;;;;;27.58;11.90;;;;;;;3.17;75.66;99073.69;5071565;28;20476;-81
2021/12/26 06:18:27;;;;;;;30.50;12.88;;;;;;;3.19;75.80;99076.22;5059988;28;20045;-81
2021/12/26 06:21:12;;;;;;;32.28;13.32;;;;;;;3.24;75.54;99074.13;5061926;28;20712;-81
2021/12/26 06:23:41;;;;;;;30.55;13.95;;;;;;;3.26;75.24;99077.47;5049726;28;20098;-82
2021/12/26 06:26:28;;;;;;;32.50;12.45;;;;;;;3.15;75.51;99074.75;5058493;28;20040;-81
2021/12/26 06:28:56;;;;;;;30.65;12.27;;;;;;;3.13;75.94;99068.75;5006614;28;20110;-82
2021/12/26 06:31:41;;;;;;;26.52;12.05;;;;;;;3.16;75.97;99072.03;5027773;28;20037;-81
2021/12/26 06:34:31;;;;;;;31.65;12.10;;;;;;;3.22;75.85;99076.00;4951678;28;20129;-82
2021/12/26 06:37:20;;;;;;;29.05;12.38;;;;;;;3.02;76.09;99074.75;5044142;28;20578;-81
2021/12/26 06:40:08;;;;;;;29.92;12.98;;;;;;;3.16;76.00;99081.69;5032297;28;20044;-81
2021/12/26 06:42:53;;;;;;;30.73;12.38;;;;;;;3.16;75.97;99079.91;5027372;28;20139;-81
2021/12/26 06:45:38;;;;;;;28.05;12.30;;;;;;;3.15;75.78;99077.38;5054673;28;20044;-81
2021/12/26 06:48:24;;;;;;;30.48;12.13;;;;;;;3.24;76.21;99080.19;5027184;28;20408;-82
2021/12/26 06:50:53;;;;;;;30.70;13.30;;;;;;;3.18;75.91;99083.25;5048891;28;20059;-82
2021/12/26 06:53:20;;;;;;;29.10;12.15;;;;;;;3.18;75.39;99082.41;5046498;28;20106;-82
2021/12/26 06:55:47;;;;;;;25.67;12.15;;;;;;;3.16;75.91;99085.16;5042213;28;20045;-82
2021/12/26 06:58:15;;;;;;;32.85;14.50;;;;;;;3.19;76.15;99092.78;5058415;28;20037;-81
2021/12/26 07:00:42;;;;;;;28.17;13.48;;;;;;;3.21;76.12;99096.16;5054653;28;20041;-81
2021/12/26 07:03:11;;;;;;;26.10;12.15;;;;;;;3.19;76.39;99095.41;5045605;28;20597;-81
2021/12/26 07:05:38;;;;;;;32.55;13.52;;;;;;;3.26;75.99;99091.44;5063867;28;20071;-82
2021/12/26 07:08:14;;;;;;;31.08;13.32;;;;;;;3.24;76.23;99090.69;5031102;28;20055;-82
2021/12/26 07:10:50;;;;;;;30.33;12.85;;;;;;;3.23;76.13;99101.28;5060542;28;20045;-82
2021/12/26 07:13:17;;;;;;;33.75;13.27;;;;;;;3.26;75.97;99096.66;5060606;28;20131;-82
2021/12/26 07:15:47;;;;;;;35.20;14.48;;;;;;;3.23;75.78;99090.78;5035939;28;20048;-82
2021/12/26 07:18:17;;;;;;;36.30;15.52;;;;;;;3.07;76.61;99095.44;5067578;28;21097;-81
2021/12/26 07:20:47;;;;;;;28.33;13.32;;;;;;;3.12;76.26;99104.66;5059502;28;20412;-81
2021/12/26 07:23:37;;;;;;;35.90;13.48;;;;;;;3.10;76.42;99100.47;5052327;28;20457;-81
2021/12/26 07:26:13;;;;;;;37.38;14.63;;;;;;;3.12;76.86;99103.81;5072178;28;20048;-81
2021/12/26 07:28:40;;;;;;;43.28;14.90;;;;;;;3.22;76.51;99105.69;5042994;28;20515;-81
2021/12/26 07:31:13;;;;;;;34.95;15.05;;;;;;;3.24;76.21;99105.59;5055453;28;20051;-81
2021/12/26 07:33:41;;;;;;;35.67;14.15;;;;;;;3.17;76.15;99113.03;5058284;28;20611;-81
2021/12/26 07:36:09;;;;;;;35.85;15.35;;;;;;;3.26;75.93;99101.91;5041869;28;20488;-82
2021/12/26 07:38:53;;;;;;;32.40;14.18;;;;;;;3.15;76.23;99114.09;5014140;28;20037;-82
2021/12/26 07:41:31;;;;;;;39.35;15.45;;;;;;;3.18;75.97;99109.50;5029541;28;20068;-82
2021/12/26 07:43:58;;;;;;;34.65;15.10;;;;;;;3.14;75.98;99118.50;5054964;28;20103;-82
2021/12/26 07:47:04;;;;;;;36.13;14.38;;;;;;;3.09;76.56;99114.53;5004376;28;20074;-80
2021/12/26 07:49:32;;;;;;;37.08;14.77;;;;;;;3.08;76.14;99118.09;5073596;28;20044;-81
2021/12/26 07:52:39;;;;;;;32.50;14.07;;;;;;;3.04;76.64;99114.84;5014675;28;20512;-80
2021/12/26 07:55:24;;;;;;;38.83;14.35;;;;;;;3.03;77.15;99114.00;5068492;28;20039;-81
2021/12/26 07:58:09;;;;;;;38.70;14.63;;;;;;;3.07;76.93;99112.00;5034959;28;20049;-80
2021/12/26 08:00:54;;;;;;;38.03;15.18;;;;;;;3.04;77.12;99118.31;5043626;28;20048;-80
2021/12/26 08:03:37;;;;;;;35.88;14.38;;;;;;;3.08;77.01;99112.84;5016054;28;20044;-83
2021/12/26 08:06:23;;;;;;;38.83;16.25;;;;;;;3.05;77.08;99121.75;5059230;28;20476;-80
2021/12/26 08:08:52;;;;;;;44.17;17.20;;;;;;;3.04;77.03;99122.72;5054005;28;20062;-81
2021/12/26 08:11:20;;;;;;;44.47;16.40;;;;;;;3.10;76.85;99122.28;5054717;28;20373;-81
2021/12/26 08:13:47;;;;;;;39.92;15.20;;;;;;;3.13;77.04;99124.72;5086308;28;20051;-81
2021/12/26 08:16:14;;;;;;;40.85;16.55;;;;;;;3.07;77.40;99122.50;5047211;28;20048;-81
2021/12/26 08:18:41;;;;;;;36.45;14.85;;;;;;;3.07;77.09;99124.28;5058564;28;20488;-80
2021/12/26 08:21:09;;;;;;;38.35;15.75;;;;;;;3.14;77.02;99121.13;5061711;28;20037;-81
2021/12/26 08:23:36;;;;;;;36.50;15.25;;;;;;;3.13;77.40;99116.84;5064276;28;20689;-81
2021/12/26 08:26:03;;;;;;;41.67;16.65;;;;;;;3.15;77.00;99124.59;5044690;28;20041;-81
2021/12/26 08:28:30;;;;;;;40.70;15.93;;;;;;;3.15;77.16;99122.81;5048421;28;20040;-81
2021/12/26 08:30:59;;;;;;;42.80;16.10;;;;;;;3.13;76.92;99121.22;5062933;28;20040;-81
2021/12/26 08:33:25;;;;;;;40.28;15.02;;;;;;;3.13;77.08;99118.59;5050053;28;20059;-81
2021/12/26 08:35:53;;;;;;;42.78;16.48;;;;;;;3.15;77.39;99128.03;5068718;28;20119;-81
2021/12/26 08:38:21;;;;;;;45.78;17.00;;;;;;;3.13;77.18;99122.09;5061882;28;20053;-81
2021/12/26 08:40:52;;;;;;;41.15;15.30;;;;;;;3.13;77.20;99121.22;5036190;28;20044;-82
2021/12/26 08:43:19;;;;;;;44.30;16.02;;;;;;;3.06;77.58;99123.44;5042624;28;20056;-81
2021/12/26 08:45:47;;;;;;;37.13;14.80;;;;;;;3.12;77.42;99124.81;5051948;28;20051;-82
2021/12/26 08:48:14;;;;;;;41.42;16.08;;;;;;;3.12;77.17;99125.63;5067446;28;20048;-81
2021/12/26 08:50:43;;;;;;;44.95;19.35;;;;;;;3.13;77.17;99122.09;5061592;28;20561;-81
2021/12/26 08:53:10;;;;;;;38.50;14.95;;;;;;;3.11;77.10;99126.59;5062762;28;20527;-82
2021/12/26 08:55:39;;;;;;;44.65;16.50;;;;;;;3.07;77.71;99126.91;5029317;28;20103;-81
2021/12/26 08:58:06;;;;;;;45.78;16.83;;;;;;;3.12;77.28;99130.06;5031801;28;20041;-81
2021/12/26 09:00:35;;;;;;;45.15;16.55;;;;;;;3.10;77.23;99124.06;5040030;28;20041;-80
2021/12/26 09:03:02;;;;;;;51.10;17.63;;;;;;;3.12;77.37;99124.81;5063876;28;20048;-81
2021/12/26 09:05:29;;;;;;;41.55;16.52;;;;;;;3.02;77.70;99130.66;5061802;28;20106;-82
2021/12/26 09:07:57;;;;;;;43.75;17.15;;;;;;;3.12;77.26;99123.00;5031737;28;20044;-81
2021/12/26 09:10:24;;;;;;;48.17;17.95;;;;;;;3.08;77.50;99128.56;5046886;28;20069;-81
2021/12/26 09:12:50;;;;;;;43.45;17.05;;;;;;;3.09;77.65;99131.09;5077779;28;20039;-81
2021/12/26 09:15:17;;;;;;;46.33;17.80;;;;;;;3.06;78.20;99130.50;5051971;28;20075;-80
2021/12/26 09:17:49;;;;;;;48.50;18.48;;;;;;;2.99;78.56;99130.06;5033678;28;20048;-83
2021/12/26 09:20:18;;;;;;;52.10;20.17;;;;;;;3.05;78.57;99132.25;5083359;28;20044;-81
2021/12/26 09:22:45;;;;;;;49.88;18.48;;;;;;;3.07;78.14;99125.13;5034636;28;20048;-83
2021/12/26 09:25:13;;;;;;;43.85;18.83;;;;;;;3.07;78.39;99137.41;5068247;28;20055;-82
2021/12/26 09:27:39;;;;;;;44.85;16.63;;;;;;;3.08;78.40;99139.06;5058288;28;20040;-81
2021/12/26 09:30:07;;;;;;;46.17;18.35;;;;;;;3.16;78.16;99135.00;5056129;28;20515;-82
2021/12/26 09:32:35;;;;;;;45.20;18.80;;;;;;;3.01;78.69;99146.53;5066623;28;20686;-82
2021/12/26 09:35:05;;;;;;;45.38;17.48;;;;;;;3.10;78.49;99138.00;5077283;28;20054;-82
2021/12/26 09:37:33;;;;;;;45.35;16.88;;;;;;;3.13;78.21;99136.97;5070780;28;20047;-82
2021/12/26 09:40:00;;;;;;;43.42;16.58;;;;;;;3.14;77.90;99134.25;5051021;28;20039;-82
2021/12/26 09:42:28;;;;;;;45.35;17.77;;;;;;;3.13;77.98;99142.22;5059784;28;20748;-82
2021/12/26 09:44:55;;;;;;;45.45;17.67;;;;;;;3.17;77.87;99143.69;5063828;28;20124;-82
2021/12/26 09:47:21;;;;;;;46.55;17.77;;;;;;;3.09;78.32;99140.75;5060870;28;20040;-82
2021/12/26 09:49:49;;;;;;;49.42;18.83;;;;;;;3.15;78.19;99141.16;5064638;28;20042;-81
2021/12/26 09:52:16;;;;;;;47.58;18.77;;;;;;;3.10;78.46;99140.63;5055143;28;20041;-80
2021/12/26 09:54:45;;;;;;;49.90;17.75;;;;;;;3.07;78.43;99140.84;5065891;28;20134;-81
2021/12/26 09:57:12;;;;;;;54.15;18.10;;;;;;;3.13;78.64;99140.44;5076822;28;20051;-81
2021/12/26 09:59:40;;;;;;;46.05;16.83;;;;;;;3.14;78.53;99138.66;5009311;28;20557;-83
2021/12/26 10:02:11;;;;;;;51.92;18.67;;;;;;;3.13;78.82;99142.22;5034829;28;20059;-83
2021/12/26 10:04:51;;;;;;;40.40;16.73;;;;;;;3.20;78.97;99144.31;5040537;28;20055;-79
2021/12/26 10:07:23;;;;;;;48.28;17.52;;;;;;;3.13;78.88;99134.34;5066280;28;20041;-79
2021/12/26 10:09:52;;;;;;;46.83;17.45;;;;;;;3.13;78.74;99134.34;5069136;28;20036;-79
2021/12/26 10:12:20;;;;;;;46.10;17.88;;;;;;;3.12;78.98;99128.25;5047771;28;20044;-82
2021/12/26 10:14:54;;;;;;;49.13;18.70;;;;;;;3.12;78.90;99128.25;5088905;28;20046;-82
2021/12/26 10:17:50;;;;;;;46.90;17.98;;;;;;;3.07;78.83;99126.91;5072934;28;20128;-94
2021/12/26 10:24:36;;;;;;;50.15;16.65;;;;;;;3.11;79.16;99117.91;5035637;28;20032;-90
2021/12/26 10:27:05;;;;;;;50.72;18.23;;;;;;;3.09;79.09;99114.53;5008911;28;20125;-89
2021/12/26 10:29:59;;;;;;;47.75;16.25;;;;;;;3.04;79.47;99120.09;5081411;28;20048;-89
2021/12/26 10:32:29;;;;;;;43.05;16.88;;;;;;;3.09;79.22;99109.28;5018975;28;20056;-88
2021/12/26 10:35:06;;;;;;;44.90;16.90;;;;;;;3.10;79.56;99119.66;5053249;28;20051;-88
2021/12/26 10:37:41;;;;;;;45.65;17.38;;;;;;;3.13;79.12;99106.34;5059913;28;20048;-88
2021/12/26 10:40:11;;;;;;;48.15;17.77;;;;;;;3.09;79.64;99098.78;5033912;28;20490;-89
2021/12/26 10:42:46;;;;;;;43.88;17.38;;;;;;;3.02;80.07;99101.00;5049266;28;20064;-89
2021/12/26 10:45:20;;;;;;;52.78;19.08;;;;;;;3.25;79.29;99100.22;5058225;28;20036;-89
2021/12/26 10:47:57;;;;;;;48.53;17.77;;;;;;;3.02;80.27;99098.38;5064963;28;20039;-88
2021/12/26 10:50:27;;;;;;;47.55;18.50;;;;;;;3.03;80.41;99102.69;5076277;28;20503;-89
2021/12/26 10:53:02;;;;;;;45.80;16.77;;;;;;;3.10;79.48;99106.53;5060012;28;20047;-88
2021/12/26 10:55:40;;;;;;;49.13;17.85;;;;;;;3.18;79.48;99101.63;5059339;28;20430;-89
2021/12/26 10:58:10;;;;;;;50.60;16.60;;;;;;;3.18;79.72;99103.38;5067079;28;20170;-89
2021/12/26 11:00:42;;;;;;;43.65;16.05;;;;;;;3.17;79.83;99093.84;5079438;28;20059;-88
2021/12/26 11:03:34;;;;;;;49.15;18.15;;;;;;;3.14;80.02;99096.69;5060456;28;20052;-89
2021/12/26 11:06:06;;;;;;;43.85;17.60;;;;;;;3.24;80.03;99090.69;5043405;28;20395;-89
2021/12/26 11:08:39;;;;;;;55.72;18.63;;;;;;;3.24;79.92;99092.47;5061925;28;20389;-90
2021/12/26 11:11:11;;;;;;;;;;;;;;;3.18;80.20;99093.75;5045904;28;20044;-89
2021/12/26 11:13:38;;;;;;;48.97;18.25;;;;;;;3.23;79.92;99081.16;5076995;28;19920;-90
2021/12/26 11:16:07;;;;;;;45.08;17.08;;;;;;;3.20;80.30;99086.59;5070298;28;20047;-89
2021/12/26 11:18:36;;;;;;;48.20;17.65;;;;;;;3.22;80.19;99084.69;5047193;28;20043;-89
2021/12/26 11:21:13;;;;;;;50.55;18.17;;;;;;;3.22;80.22;99073.38;5079252;28;20515;-89
2021/12/26 11:23:42;;;;;;;48.47;17.92;;;;;;;3.34;79.72;99075.13;5035467;28;20053;-89
2021/12/26 11:26:12;;;;;;;48.45;17.23;;;;;;;3.21;80.07;99079.59;5061623;28;20044;-89
2021/12/26 11:28:43;;;;;;;47.50;18.02;;;;;;;3.23;80.07;99075.91;5031046;28;20561;-89
2021/12/26 11:31:13;;;;;;;48.60;16.92;;;;;;;3.19;80.70;99092.78;5064535;28;20543;-89
2021/12/26 11:33:40;;;;;;;41.95;16.90;;;;;;;3.22;80.24;99078.63;5042241;28;20063;-89
2021/12/26 11:36:12;;;;;;;46.95;16.73;;;;;;;3.17;80.76;99076.31;5031502;28;20045;-89
2021/12/26 11:38:41;;;;;;;54.38;19.02;;;;;;;3.24;80.53;99084.59;5045446;28;20083;-88
2021/12/26 11:41:31;;;;;;;45.70;18.13;;;;;;;3.22;80.52;99071.59;4998324;28;20375;-89
2021/12/26 11:44:43;;;;;;;50.10;18.40;;;;;;;3.17;80.61;99076.31;5044092;28;20052;-89
2021/12/26 11:48:22;;;;;;;48.10;17.17;;;;;;;3.21;80.78;99066.47;4989979;28;20048;-89
2021/12/26 11:51:34;;;;;;;50.80;17.38;;;;;;;3.17;81.03;99060.56;5003866;28;20909;-89
2021/12/26 11:54:18;;;;;;;42.75;16.67;;;;;;;3.19;81.14;99063.94;5019622;28;20044;-88